CST,Max TemperatureF,Mean TemperatureF,Min TemperatureF,Max Dew PointF,MeanDew PointF,Min DewpointF,Max Humidity, Mean Humidity, Min Humidity, Max Sea Level PressureIn, Mean Sea Level PressureIn, Min Sea Level PressureIn, Max VisibilityMiles, Mean VisibilityMiles, Min VisibilityMiles, Max Wind SpeedMPH, Mean Wind SpeedMPH, Max Gust SpeedMPH,PrecipitationIn, CloudCover, Events, WindDirDegrees
2014-2-1,75,62,48,59,53,34,78,65,51,30.05,29.88,29.75,10,10,10,20,13,31,0.00,8,,169
2014-2-2,48,40,33,36,30,26,87,75,61,30.36,30.19,30.04,10,10,6,20,14,29,0.00,8,Rain,333
2014-2-3,42,37,32,38,31,26,89,79,70,30.35,30.25,30.07,10,9,6,12,8,,0.00,8,Rain,6
2014-2-4,62,52,41,43,40,37,93,80,44,30.23,30.00,29.88,10,8,4,13,4,,0.14,6,Rain,319
2014-2-5,43,36,28,38,24,15,82,61,41,30.59,30.43,30.16,10,10,10,22,12,30,0.00,2,,337
2014-2-6,28,24,21,17,14,10,69,60,53,30.65,30.55,30.44,10,10,10,16,11,23,0.00,8,,343
2014-2-7,34,30,26,30,25,17,89,79,66,30.49,30.37,30.21,10,8,5,8,4,,0.00,8,,36
2014-2-8,66,50,33,42,36,30,89,73,38,30.33,30.21,30.09,10,9,5,14,6,21,0.00,4,,154
2014-2-9,73,55,37,51,41,34,93,70,38,30.16,30.10,30.01,10,8,1,14,4,18,0.00,2,,67
2014-2-10,46,39,32,40,33,28,93,83,76,30.34,30.24,30.07,10,9,5,16,11,23,0.00,8,Rain,339
2014-2-11,34,33,32,28,28,26,87,81,73,30.38,30.30,30.19,10,9,6,17,12,23,0.01,8,Rain,332
2014-2-12,54,44,33,31,28,26,78,63,38,30.34,30.25,30.16,10,10,10,12,8,18,0.00,4,,304
2014-2-13,70,51,32,37,32,27,85,55,27,30.17,30.08,29.99,10,10,10,13,4,17,0.00,0,,146
2014-2-14,80,63,46,41,32,22,74,40,17,30.18,30.00,29.89,10,10,10,24,9,33,0.00,0,,297
2014-2-15,73,56,39,47,31,23,69,38,21,30.25,30.17,30.07,10,10,10,17,6,25,0.00,0,,142
2014-2-16,73,63,53,58,56,47,94,79,57,30.14,30.05,29.94,10,9,3,15,8,23,0.00,5,,150
2014-2-17,81,70,59,61,44,22,88,52,13,30.22,30.10,29.95,10,10,10,22,10,36,0.00,3,,293
2014-2-18,81,66,50,60,45,26,84,50,30,30.20,30.06,29.96,10,10,10,16,4,22,0.00,2,,164
2014-2-19,75,68,61,62,60,59,94,79,60,30.00,29.89,29.74,10,9,5,22,9,32,0.00,6,,154
2014-2-20,81,66,50,63,46,22,83,54,11,30.20,29.92,29.68,10,10,10,25,14,37,0.00,3,,239
2014-2-21,69,53,37,30,26,21,67,35,17,30.29,30.18,30.10,10,10,10,16,5,21,0.00,0,,148
2014-2-22,75,62,48,55,44,27,80,54,32,30.12,30.02,29.90,10,10,10,20,9,26,0.00,1,,151
2014-2-23,80,68,55,59,53,40,94,69,29,30.17,30.02,29.88,10,9,2,13,6,17,0.00,1,,170
2014-2-24,72,60,48,55,48,40,83,67,48,30.22,30.12,30.02,10,10,9,12,6,,0.00,4,Rain,43
2014-2-25,61,54,48,59,52,45,94,90,82,30.18,30.07,29.98,7,3,0,13,6,18,0.54,8,Fog-Rain-Thunderstorm,4
2014-2-26,46,41,36,43,27,17,86,61,37,30.38,30.27,30.08,10,10,8,22,14,30,0.01,5,Rain,332
2014-2-27,57,44,30,31,24,18,69,47,27,30.28,30.15,29.97,10,10,10,13,4,20,0.00,0,,144
2014-2-28,84,64,43,51,40,29,76,49,17,29.95,29.89,29.81,10,10,10,16,10,24,0.00,0,,167